Aeroporto :
LOGIN :

Iscrizione | Disclaimer

   EN    FR    IT 

 










Sommario :    VFR   VFR Marginale   IFR   IFR Intensivo   IFR Molto Intensivo
Visibilità : 
Base nubi : 
>= 8 km
>= 3000ft
5 / 8 km
1000 / 3000 ft
1500m / 5 km
500 / 1000 ft
800 / 1500m
200 / 500 ft
< 800m
< 200 ft
Simboli :   Temporali  Nebbia  Neve Forte  Precipitazioni Forti  Vento > 20 kt
SIGMETs :   Varie  Temporali  Ghiacco  Turbolenza  Onda orograficha  Ceneri Vulcaniche






- Altitudine del aeroporto : 290 ft
- Codice IATA : LAI


LFRO - Lannion

ULTIMO METAR :
  • 251530Z AUTO 27024G36KT 9999 -RA FEW020/// BKN028/// BKN037/// ///CB 08/04 Q1008

METARs OBSOLETI :
  • 251500Z AUTO 28019KT 9000 FEW019/// SCT033/// BKN044/// ///TCU 08/05 Q1008
  • 251430Z AUTO 26027KT 220V280 9999 BKN027/// BKN034/// BKN041/// ///CB 09/04 Q1008
  • 251400Z AUTO 26022G34KT 9999 BKN028/// BKN043/// BKN050/// ///TCU 09/04 Q1008
  • 251330Z AUTO 26027G40KT 9999 -RA SCT032/// BKN042/// BKN066/// ///TCU 09/05 Q1008
  • 251300Z AUTO 25019G31KT 9999 BKN027/// BKN045/// OVC120/// ///TCU 10/05 Q1009

Previsioni scadute.



MetMap, La meteo Aeronautica in un colpo d'occhio ! - Copyright ORBIFLY Dicembre 2007 - Disclaimer

ORBIFLY MET'MAP TEAM :

Programmazione e sviluppo : Alexandra Zaïnal
Concezione : Baudouin d'Aumeries
Aiuto per la programmazione : Marc-Olivier Méhu
Supporto tecnico e logistico : Manuel Goepfert
Aiuto per la traduzione : Arnaldo La Scala

Contatto : metmap@orbifly.com




FONTI E CREDITI :

   NOAA